Airfield :
LOGIN :

Register | Disclaimer

   EN    FR    IT 

 










Legend :    VFR   Marginal VFR   IFR   Intensive IFR   Very Intensive IFR
Visi :
Ceiling :
>= 8 km
>= 3000ft
5 to 8 km
1000 to 3000 ft
1500m to 5 km
500 to 1000 ft
800 to 1500m
200 to 500 ft
< 800m
< 200 ft
Symbols :   Thunderstorms  Fog  Heavy snow  Heavy precipitations  Wind > 20 kt
SIGMETs :     Misc.  Thunderstorms  Icing  Turbulence  Mountain Waves  Volcanic Ashes







- Airport Elevation : 277 ft
- IATA code : JER
- Download approach charts


EGJJ - Jersey

CURRENT METAR :
  • 231350Z 07008KT 9999 FEW012 SCT020 BKN033 08/06 Q1009 TEMPO BKN012

EXPIRED METARs :
  • 231320Z 06007KT 9999 -RA FEW008 SCT012 BKN019 07/06 Q1009 NOSIG
  • 231250Z 08012KT 9999 -RA FEW008 SCT012 BKN019 07/06 Q1009 TEMPO BKN015
  • 231220Z 07009KT 030V090 9999 -RA FEW009 SCT020 07/06 Q1009 TEMPO 5000 RA BKN012
  • 231150Z 06008KT 9999 -RA FEW009 SCT025 07/06 Q1009 TEMPO 5000 RA BKN015
  • 231120Z 08008KT 9999 -RA FEW010 SCT023 08/06 Q1009 TEMPO 5000 RA BKN015

TAF TAF EGJJ
Valid from the 23 at 12:00 until the 23 at 21:00 UTC


231058Z 2312/2321 06008KT 9999 FEW018 BKN040
BECMG 2312/2315 8000 -RA BKN015
PROB30
TEMPO 2312/2321 5000 +RA SCT006 BKN010
PROB30
TEMPO 2316/2321 06020KT
ATIS : +44 1534 498 073
No reported NOTAMs for that airfield.



MET'MAP, your aeronautical weather chart ! - Copyright ORBIFLY December 2007 - Disclaimer

ORBIFLY MET'MAP TEAM :

Programming & Development : Alexandra Zaïnal
Concept & Development : Baudouin d'Aumeries
Co-Development & Prog : Marc-Olivier Méhu
Technical & hardware support : Manuel Goepfert

Contact : metmap@orbifly.com




SOURCES & CREDITS :

   NOAA